Time;durP1;ratioP1;P1;durP2;ratioP2;P2;SDS_P1;SDS_P2;PMS_P1;PMS_P2;Temp;Humidity;BMP_temperature;BMP_pressure;BME280_temperature;BME280_humidity;BME280_pressure;Samples;Min_cycle;Max_cycle;Signal;HPM_P1;HPM_P2
2022/06/21 00:00:34;;;;;;;7.78;4.13;;;;;;;21.66;43.95;101863.72;5089134;28;20024;-72
2022/06/21 00:03:03;;;;;;;9.55;4.38;;;;;;;21.76;43.56;101863.34;5095461;28;20035;-72
2022/06/21 00:05:34;;;;;;;11.57;4.32;;;;;;;21.87;43.77;101861.09;5094895;28;20460;-72
2022/06/21 00:08:02;;;;;;;8.75;4.10;;;;;;;21.62;43.99;101855.94;5095525;28;20051;-72
2022/06/21 00:10:27;;;;;;;8.98;4.22;;;;;;;21.73;43.92;101856.34;5095111;28;20077;-72
2022/06/21 00:12:53;;;;;;;9.15;4.57;;;;;;;21.74;43.85;101852.78;5093284;28;20020;-72
2022/06/21 00:15:18;;;;;;;13.43;5.00;;;;;;;21.74;43.62;101850.13;5094032;28;20024;-72
2022/06/21 00:17:48;;;;;;;9.85;4.82;;;;;;;22.14;42.87;101856.44;5093926;28;20051;-71
2022/06/21 00:20:18;;;;;;;10.60;4.72;;;;;;;21.92;43.55;101856.47;5092861;28;20440;-74
2022/06/21 00:22:44;;;;;;;7.10;5.13;;;;;;;21.47;44.46;101852.94;5093890;28;20020;-71
2022/06/21 00:25:25;;;;;;;10.07;4.45;;;;;;;21.60;44.11;101847.16;5093750;28;20035;-71
2022/06/21 00:27:53;;;;;;;8.80;4.97;;;;;;;22.05;43.03;101858.63;5092760;28;20034;-72
2022/06/21 00:30:21;;;;;;;11.05;4.53;;;;;;;21.63;43.99;101852.34;5093626;28;20491;-72
2022/06/21 00:32:50;;;;;;;8.63;4.93;;;;;;;21.82;43.82;101848.00;5094905;28;20035;-74
2022/06/21 00:35:19;;;;;;;11.55;4.75;;;;;;;22.01;43.26;101841.94;5092956;28;20475;-71
2022/06/21 00:37:45;;;;;;;9.68;5.10;;;;;;;21.85;44.08;101844.34;5095245;28;20036;-72
2022/06/21 00:40:17;;;;;;;13.77;5.65;;;;;;;21.96;43.02;101838.59;5092980;28;20372;-72
2022/06/21 00:42:46;;;;;;;11.00;4.70;;;;;;;21.83;43.29;101832.91;5092679;28;20101;-72
2022/06/21 00:45:25;;;;;;;9.68;4.78;;;;;;;22.07;42.75;101836.34;5093455;28;20027;-72
2022/06/21 00:48:00;;;;;;;11.65;4.82;;;;;;;22.24;42.67;101837.41;5092474;28;20155;-72
2022/06/21 00:50:25;;;;;;;8.00;4.72;;;;;;;22.29;42.48;101838.94;5093283;28;20020;-71
2022/06/21 00:53:01;;;;;;;12.30;5.78;;;;;;;22.49;41.65;101835.44;5093253;28;20034;-72
2022/06/21 00:55:44;;;;;;;10.35;5.00;;;;;;;22.00;42.97;101834.88;5092507;28;20024;-72
2022/06/21 00:58:13;;;;;;;10.80;4.38;;;;;;;22.10;42.62;101825.53;5092897;28;20032;-72
2022/06/21 01:01:00;;;;;;;11.73;4.78;;;;;;;22.16;42.68;101827.97;5094410;28;20028;-72
2022/06/21 01:03:30;;;;;;;11.95;5.03;;;;;;;22.29;41.96;101824.75;5092416;28;20020;-71
2022/06/21 01:06:00;;;;;;;10.65;4.80;;;;;;;21.92;42.88;101831.66;5093262;28;20099;-71
2022/06/21 01:08:34;;;;;;;11.60;4.50;;;;;;;22.19;42.23;101821.63;5094276;28;20101;-74
2022/06/21 01:11:05;;;;;;;9.70;5.07;;;;;;;21.96;42.59;101809.31;5093486;28;20495;-72
2022/06/21 01:13:35;;;;;;;11.23;5.03;;;;;;;22.22;42.22;101807.34;5092327;28;20028;-71
2022/06/21 01:16:00;;;;;;;9.40;4.68;;;;;;;22.41;41.85;101808.28;5091921;28;20024;-72
2022/06/21 01:18:26;;;;;;;8.60;5.20;;;;;;;22.24;41.93;101805.44;5092711;28;20024;-72
2022/06/21 01:20:56;;;;;;;11.13;6.05;;;;;;;22.10;42.26;101804.25;5092347;28;20012;-71
2022/06/21 01:23:29;;;;;;;8.65;4.53;;;;;;;21.70;43.51;101800.63;5091808;28;20387;-71
2022/06/21 01:26:04;;;;;;;14.52;4.70;;;;;;;21.73;43.35;101811.13;5092770;28;20032;-71
2022/06/21 01:28:30;;;;;;;6.75;4.32;;;;;;;21.88;43.34;101808.78;5093889;28;20107;-71
2022/06/21 01:30:57;;;;;;;9.18;4.40;;;;;;;21.76;43.43;101803.03;5091723;28;20016;-73
2022/06/21 01:33:33;;;;;;;8.90;4.65;;;;;;;21.68;43.69;101810.47;5092383;28;20024;-73
2022/06/21 01:36:03;;;;;;;8.38;4.80;;;;;;;21.88;43.04;101814.09;5092471;28;20024;-71
2022/06/21 01:38:35;;;;;;;11.20;4.70;;;;;;;22.10;42.23;101817.56;5091607;28;20479;-71
2022/06/21 01:41:08;;;;;;;10.43;4.67;;;;;;;21.72;43.89;101813.84;5073483;28;20117;-71
2022/06/21 01:43:34;;;;;;;14.30;4.60;;;;;;;21.96;43.07;101818.16;5055436;28;20028;-72
2022/06/21 01:46:14;;;;;;;8.65;5.13;;;;;;;22.11;42.64;101816.63;5054235;28;20119;-72
2022/06/21 01:48:48;;;;;;;8.65;4.80;;;;;;;21.85;43.53;101815.09;5055230;28;20028;-71
2022/06/21 01:51:29;;;;;;;10.13;4.50;;;;;;;22.04;42.81;101809.84;5054449;28;20130;-71
2022/06/21 01:53:57;;;;;;;10.57;4.57;;;;;;;22.04;43.13;101807.19;5073080;28;20492;-71
2022/06/21 01:56:28;;;;;;;9.93;4.93;;;;;;;21.61;43.94;101806.31;5073139;28;20129;-72
2022/06/21 01:59:01;;;;;;;13.48;4.80;;;;;;;22.28;42.15;101807.03;5054085;28;20021;-71
2022/06/21 02:01:33;;;;;;;8.65;4.63;;;;;;;22.15;42.29;101818.22;5054970;28;20415;-71
2022/06/21 02:04:01;;;;;;;11.45;4.32;;;;;;;22.39;41.38;101819.91;5072962;28;20040;-71
2022/06/21 02:06:31;;;;;;;9.00;4.40;;;;;;;22.25;41.22;101823.16;5054007;28;20032;-71
2022/06/21 02:09:16;;;;;;;9.77;4.80;;;;;;;22.31;41.29;101823.75;5054763;28;20025;-71
2022/06/21 02:11:51;;;;;;;9.13;5.03;;;;;;;21.52;43.34;101819.06;5054708;28;20459;-71
2022/06/21 02:14:30;;;;;;;10.93;5.00;;;;;;;21.51;43.60;101801.38;5053969;28;20025;-71
2022/06/21 02:17:24;;;;;;;12.38;4.90;;;;;;;20.99;45.20;101795.44;5072784;28;20117;-71
2022/06/21 02:20:17;;;;;;;12.48;5.15;;;;;;;21.61;43.46;101803.66;5053762;28;20230;-71
2022/06/21 02:22:43;;;;;;;7.53;4.70;;;;;;;21.83;42.71;101816.94;5054717;28;20024;-71
2022/06/21 02:25:15;;;;;;;9.30;4.90;;;;;;;21.59;43.44;101806.38;5053664;28;20033;-72
2022/06/21 02:27:40;;;;;;;7.67;5.07;;;;;;;21.88;42.27;101801.66;5053614;28;20066;-71
2022/06/21 02:30:17;;;;;;;11.75;4.97;;;;;;;21.58;43.43;101786.03;5072462;28;20267;-71
2022/06/21 02:32:43;;;;;;;13.77;5.43;;;;;;;20.74;45.64;101780.44;5072294;28;20028;-71
2022/06/21 02:35:21;;;;;;;8.17;4.93;;;;;;;21.18;43.53;101780.53;5053560;28;20435;-72
2022/06/21 02:37:48;;;;;;;13.18;5.65;;;;;;;21.35;43.65;101773.66;5072213;28;20051;-71
2022/06/21 02:40:28;;;;;;;10.90;5.47;;;;;;;21.52;43.82;101771.19;5076567;28;20046;-71
2022/06/21 02:42:58;;;;;;;12.00;5.33;;;;;;;21.36;43.78;101754.09;5091332;28;20015;-71
2022/06/21 02:45:24;;;;;;;10.87;5.83;;;;;;;20.81;45.62;101757.16;5091142;28;20066;-73
2022/06/21 02:47:50;;;;;;;8.83;5.93;;;;;;;20.30;47.05;101746.59;5091598;28;20058;-71
2022/06/21 02:50:37;;;;;;;11.50;5.57;;;;;;;20.92;45.39;101732.84;5090855;28;20065;-71
2022/06/21 02:53:15;;;;;;;8.47;5.17;;;;;;;20.75;46.45;101723.72;5090938;28;20020;-71
2022/06/21 02:55:45;;;;;;;9.77;5.60;;;;;;;20.92;45.88;101722.19;5090178;28;20444;-71
2022/06/21 02:58:34;;;;;;;9.50;5.80;;;;;;;20.89;45.55;101732.97;5090996;28;20123;-71
2022/06/21 03:01:03;;;;;;;8.83;5.80;;;;;;;21.10;44.84;101739.22;5077527;28;20051;-71
2022/06/21 03:03:31;;;;;;;6.57;5.33;;;;;;;21.64;43.70;101737.91;5090109;28;20031;-71
2022/06/21 03:05:59;;;;;;;9.03;5.60;;;;;;;21.67;43.77;101734.25;5090658;28;20476;-71
2022/06/21 03:08:29;;;;;;;8.90;5.20;;;;;;;21.83;43.26;101745.97;5089735;28;20027;-73
2022/06/21 03:10:55;;;;;;;10.83;6.00;;;;;;;21.39;44.35;101748.69;5090772;28;20372;-72
2022/06/21 03:13:24;;;;;;;8.77;5.90;;;;;;;21.51;43.88;101753.50;5090683;28;20023;-72
2022/06/21 03:15:57;;;;;;;13.13;5.43;;;;;;;21.54;43.75;101756.97;5089951;28;20020;-72
2022/06/21 03:18:32;;;;;;;11.70;5.55;;;;;;;21.41;43.96;101757.44;5090670;28;20076;-72
2022/06/21 03:21:00;;;;;;;12.30;6.37;;;;;;;21.67;43.09;101750.22;5090446;28;20158;-72
2022/06/21 03:23:26;;;;;;;16.33;6.10;;;;;;;21.45;43.47;101748.41;5090038;28;20081;-72
2022/06/21 03:25:57;;;;;;;11.57;6.30;;;;;;;20.79;45.14;101749.25;5090532;28;20081;-72
2022/06/21 03:28:33;;;;;;;11.50;6.47;;;;;;;20.80;45.87;101751.00;5090555;28;20020;-72
2022/06/21 03:31:30;;;;;;;10.80;5.40;;;;;;;21.24;44.34;101749.28;5090812;28;20027;-72
2022/06/21 03:34:06;;;;;;;14.07;6.47;;;;;;;20.92;45.48;101749.63;5076983;28;20036;-72
2022/06/21 03:36:32;;;;;;;11.40;6.00;;;;;;;21.17;44.82;101748.66;5089517;28;20365;-72
2022/06/21 03:39:11;;;;;;;14.37;7.03;;;;;;;21.55;43.66;101737.44;5088503;28;20064;-72
2022/06/21 03:41:45;;;;;;;9.90;5.73;;;;;;;21.46;43.32;101736.84;5053305;28;20170;-72
2022/06/21 03:44:25;;;;;;;12.23;5.90;;;;;;;21.29;44.05;101723.38;5052624;28;20384;-72
2022/06/21 03:46:57;;;;;;;16.07;6.77;;;;;;;21.27;43.90;101714.63;5053523;28;20044;-72
2022/06/21 03:49:45;;;;;;;12.77;5.83;;;;;;;21.24;43.68;101717.38;5053085;28;20043;-72
2022/06/21 03:52:41;;;;;;;17.20;6.60;;;;;;;20.83;45.80;101703.03;5052488;28;20100;-72
2022/06/21 03:55:13;;;;;;;8.57;5.77;;;;;;;20.78;45.54;101720.09;5071269;28;20413;-72
2022/06/21 03:57:51;;;;;;;9.10;5.82;;;;;;;21.39;44.40;101722.09;5070588;28;20614;-72
2022/06/21 04:00:17;;;;;;;10.27;6.27;;;;;;;21.38;44.11;101728.31;5053301;28;20115;-72
2022/06/21 04:02:57;;;;;;;9.90;6.63;;;;;;;21.33;45.15;101715.19;5053107;28;20115;-72
2022/06/21 04:05:29;;;;;;;13.20;7.13;;;;;;;20.58;47.87;101702.22;5052737;28;20066;-72
2022/06/21 04:08:00;;;;;;;11.70;7.10;;;;;;;20.48;48.67;101691.97;5053569;28;20547;-74
2022/06/21 04:10:43;;;;;;;13.27;7.83;;;;;;;21.33;46.86;101690.41;5053525;28;20073;-72
2022/06/21 04:13:22;;;;;;;18.27;8.97;;;;;;;20.83;47.30;101686.25;5052309;28;20588;-72
2022/06/21 04:16:03;;;;;;;20.33;9.57;;;;;;;20.89;48.14;101690.44;5053221;28;20031;-71
2022/06/21 04:18:36;;;;;;;15.80;8.33;;;;;;;21.30;46.38;101690.56;5053147;28;20066;-72
2022/06/21 04:21:35;;;;;;;13.00;8.25;;;;;;;21.32;45.83;101691.34;5071297;28;20380;-72
2022/06/21 04:24:11;;;;;;;21.53;9.33;;;;;;;20.93;47.15;101681.44;5052680;28;20460;-72
2022/06/21 04:26:47;;;;;;;19.97;9.07;;;;;;;21.05;46.64;101680.03;5052603;28;20051;-72
2022/06/21 04:29:28;;;;;;;13.63;8.10;;;;;;;20.90;46.89;101676.25;5053173;28;20028;-72
2022/06/21 04:32:07;;;;;;;18.83;6.97;;;;;;;21.52;45.41;101690.50;5052805;28;20025;-72
2022/06/21 04:34:40;;;;;;;12.97;8.20;;;;;;;21.44;45.39;101698.81;5052190;28;20028;-72
2022/06/21 04:37:15;;;;;;;15.13;7.23;;;;;;;20.84;47.29;101695.94;5052921;28;20024;-72
2022/06/21 04:39:57;;;;;;;16.80;7.10;;;;;;;21.79;45.07;101696.47;5065689;28;20056;-71
2022/06/21 04:42:38;;;;;;;13.27;6.60;;;;;;;21.06;46.75;101693.31;5090012;28;20039;-71
2022/06/21 04:45:17;;;;;;;16.83;7.43;;;;;;;21.75;45.70;101692.22;5089800;28;20020;-73
2022/06/21 04:47:46;;;;;;;13.75;7.13;;;;;;;22.29;45.35;101696.94;5091017;28;20031;-73
2022/06/21 04:50:17;;;;;;;14.73;6.38;;;;;;;24.17;41.37;101692.19;5093307;28;20008;-71
2022/06/21 04:52:58;;;;;;;15.18;6.03;;;;;;;25.49;39.13;101689.22;5094613;28;20024;-71
2022/06/21 04:55:42;;;;;;;11.90;5.07;;;;;;;26.81;36.45;101689.19;5092387;28;20027;-71
2022/06/21 04:58:10;;;;;;;9.82;4.63;;;;;;;26.90;35.53;101684.06;5094635;28;20502;-73
2022/06/21 05:00:36;;;;;;;9.30;5.38;;;;;;;26.37;34.80;101691.06;5093105;28;20062;-71
2022/06/21 05:03:12;;;;;;;11.77;4.60;;;;;;;26.66;34.75;101691.00;5093568;28;20055;-71
2022/06/21 05:05:38;;;;;;;8.93;4.45;;;;;;;26.92;33.73;101692.88;5093138;28;20020;-74
2022/06/21 05:08:23;;;;;;;10.07;4.03;;;;;;;27.73;31.86;101690.19;5092375;28;20322;-71
2022/06/21 05:10:54;;;;;;;6.65;3.75;;;;;;;27.98;32.05;101697.38;5094560;28;20508;-73
2022/06/21 05:13:38;;;;;;;7.35;3.65;;;;;;;29.48;29.87;101699.97;5092963;28;20024;-71
2022/06/21 05:16:18;;;;;;;10.20;5.15;;;;;;;30.26;29.24;101706.44;5091935;28;20081;-72
2022/06/21 05:18:49;;;;;;;7.00;3.60;;;;;;;29.59;29.03;101708.09;5092938;28;20114;-71
2022/06/21 05:21:28;;;;;;;10.00;4.20;;;;;;;29.67;29.90;101701.25;5092606;28;20123;-71
2022/06/21 05:23:54;;;;;;;7.68;3.30;;;;;;;28.48;30.49;101705.53;5091891;28;20027;-71
2022/06/21 05:26:38;;;;;;;6.53;3.28;;;;;;;28.70;30.88;101698.59;5092597;28;20028;-71
2022/06/21 05:29:39;;;;;;;8.55;3.75;;;;;;;27.32;32.91;101700.06;5091937;28;20024;-71
2022/06/21 05:32:10;;;;;;;11.95;4.93;;;;;;;26.71;34.52;101715.75;4994930;28;20047;-71
2022/06/21 05:34:44;;;;;;;7.68;3.30;;;;;;;26.01;35.42;101708.47;5075813;28;20396;-71
2022/06/21 05:37:18;;;;;;;9.57;5.00;;;;;;;24.54;38.36;101711.56;5091562;28;20036;-71
2022/06/21 05:39:48;;;;;;;6.40;3.70;;;;;;;24.89;38.13;101704.25;5092144;28;20048;-71
2022/06/21 05:42:17;;;;;;;9.98;3.88;;;;;;;23.64;41.35;101710.03;5092151;28;20026;-71
2022/06/21 05:44:48;;;;;;;7.63;4.32;;;;;;;23.62;41.39;101714.63;5092835;28;20035;-71
2022/06/21 05:47:20;;;;;;;12.07;5.15;;;;;;;24.19;40.00;101717.88;5092149;28;20525;-71
2022/06/21 05:49:47;;;;;;;7.65;4.32;;;;;;;25.05;38.00;101716.75;5093503;28;20565;-71
2022/06/21 05:52:30;;;;;;;7.95;4.30;;;;;;;24.75;39.05;101714.84;5092437;28;20102;-71
2022/06/21 05:55:28;;;;;;;9.50;4.03;;;;;;;23.44;41.55;101722.59;5091999;28;20093;-72
2022/06/21 05:58:01;;;;;;;7.55;4.72;;;;;;;23.74;41.15;101726.44;5072071;28;20028;-71
2022/06/21 06:00:35;;;;;;;10.63;4.45;;;;;;;23.44;42.16;101741.28;5091974;28;20021;-71
2022/06/21 06:03:09;;;;;;;17.15;5.28;;;;;;;24.68;40.19;101729.53;5093541;28;20032;-71
2022/06/21 06:05:35;;;;;;;12.45;5.05;;;;;;;24.77;40.13;101738.81;5091297;28;20132;-71
2022/06/21 06:08:13;;;;;;;8.60;3.78;;;;;;;25.57;37.98;101745.84;5091598;28;20173;-71
2022/06/21 06:10:42;;;;;;;8.75;4.00;;;;;;;24.94;39.74;101745.91;5093372;28;20027;-71
2022/06/21 06:13:12;;;;;;;7.10;2.90;;;;;;;26.01;36.89;101738.75;5091274;28;20062;-71
2022/06/21 06:15:49;;;;;;;5.63;2.63;;;;;;;27.22;34.92;101736.56;5091549;28;20024;-71
2022/06/21 06:18:19;;;;;;;7.80;3.20;;;;;;;28.47;32.17;101740.56;5091064;28;20484;-71
2022/06/21 06:21:05;;;;;;;8.73;2.85;;;;;;;29.83;30.49;101742.16;5091770;28;20043;-71
2022/06/21 06:23:33;;;;;;;6.28;2.60;;;;;;;30.03;29.77;101747.84;5091794;28;20024;-71
2022/06/21 06:26:04;;;;;;;8.73;2.90;;;;;;;30.52;29.26;101751.22;5091187;28;20043;-72
2022/06/21 06:28:37;;;;;;;3.58;2.28;;;;;;;30.98;28.15;101754.69;5091361;28;20020;-71
2022/06/21 06:31:28;;;;;;;5.93;2.30;;;;;;;30.66;28.37;101768.97;5091699;28;20020;-72
2022/06/21 06:33:58;;;;;;;10.75;2.90;;;;;;;30.10;29.12;101770.66;5086133;28;20036;-72
2022/06/21 06:36:32;;;;;;;2.88;1.90;;;;;;;30.48;29.01;101772.16;5091402;28;20066;-72
2022/06/21 06:38:59;;;;;;;5.90;2.13;;;;;;;30.69;28.44;101782.22;5088317;28;20087;-72
2022/06/21 06:41:36;;;;;;;6.72;2.20;;;;;;;32.07;26.30;101768.97;5053874;28;20028;-72
2022/06/21 06:44:05;;;;;;;9.38;2.25;;;;;;;32.70;25.65;101781.50;5072334;28;20024;-72
2022/06/21 06:46:35;;;;;;;9.27;2.30;;;;;;;32.75;25.69;101771.13;5053736;28;20028;-72
2022/06/21 06:49:33;;;;;;;6.70;2.20;;;;;;;31.45;26.98;101776.91;5072154;28;20169;-72
2022/06/21 06:52:13;;;;;;;6.20;2.00;;;;;;;32.30;26.15;101780.47;5065029;28;20102;-72
2022/06/21 06:54:46;;;;;;;6.70;2.15;;;;;;;33.01;24.83;101789.56;5053596;28;20035;-72
2022/06/21 06:57:20;;;;;;;7.55;2.42;;;;;;;32.57;25.87;101785.28;5054492;28;20048;-72
2022/06/21 06:59:46;;;;;;;5.45;2.38;;;;;;;32.22;26.00;101778.44;5053958;28;20125;-72
2022/06/21 07:02:22;;;;;;;6.55;2.03;;;;;;;31.41;26.75;101781.69;5053556;28;20120;-71
2022/06/21 07:04:55;;;;;;;5.57;1.85;;;;;;;32.87;24.85;101778.13;5054140;28;20024;-72
2022/06/21 07:07:29;;;;;;;7.97;2.00;;;;;;;32.75;25.51;101773.81;5053370;28;20028;-71
2022/06/21 07:10:02;;;;;;;6.50;1.98;;;;;;;33.62;25.68;101775.78;5071714;28;20032;-72
2022/06/21 07:12:30;;;;;;;6.35;1.92;;;;;;;34.58;23.61;101774.84;5071794;28;20107;-72
2022/06/21 07:14:56;;;;;;;6.28;2.13;;;;;;;33.14;25.47;101776.63;5053320;28;20174;-72
2022/06/21 07:17:25;;;;;;;4.88;2.10;;;;;;;32.04;26.33;101782.72;5053805;28;20031;-72
2022/06/21 07:19:53;;;;;;;4.90;2.10;;;;;;;32.81;25.69;101776.84;5053765;28;20035;-71
2022/06/21 07:22:20;;;;;;;3.63;2.10;;;;;;;33.02;25.03;101786.72;5070825;28;20037;-71
2022/06/21 07:24:54;;;;;;;4.78;2.13;;;;;;;33.57;24.31;101772.66;5053739;28;20115;-72
2022/06/21 07:27:23;;;;;;;7.47;3.03;;;;;;;33.76;25.11;101773.63;5053865;28;20573;-72
2022/06/21 07:29:58;;;;;;;6.57;2.08;;;;;;;33.54;25.36;101775.66;5070943;28;20027;-72
2022/06/21 07:32:32;;;;;;;3.72;1.80;;;;;;;33.75;24.83;101775.47;5071689;28;20390;-72
2022/06/21 07:35:05;;;;;;;4.63;2.25;;;;;;;31.67;26.47;101772.38;5053578;28;20032;-72
2022/06/21 07:37:43;;;;;;;5.65;2.20;;;;;;;32.96;26.11;101766.47;5052850;28;20070;-72
2022/06/21 07:40:37;;;;;;;7.70;1.70;;;;;;;33.92;24.51;101771.19;5071488;28;20123;-72
2022/06/21 07:43:26;;;;;;;5.97;1.80;;;;;;;36.29;20.87;101761.22;5052905;28;20034;-72
2022/06/21 07:45:53;;;;;;;5.22;1.95;;;;;;;34.34;23.29;101769.09;5053158;28;20040;-72
2022/06/21 07:48:24;;;;;;;5.50;2.08;;;;;;;33.44;23.66;101758.53;5053361;28;20032;-73
2022/06/21 07:50:59;;;;;;;3.95;2.10;;;;;;;33.10;25.33;101740.00;5052648;28;20518;-73
2022/06/21 07:53:30;;;;;;;5.40;1.90;;;;;;;34.41;23.87;101740.34;5071859;28;20486;-73
2022/06/21 07:56:08;;;;;;;3.97;1.47;;;;;;;36.33;21.33;101744.44;5053446;28;20377;-74
2022/06/21 07:58:42;;;;;;;3.80;1.83;;;;;;;35.45;21.41;101733.66;5052305;28;20368;-74
2022/06/21 08:07:04;;;;;;;1.92;1.73;;;;;;;33.90;23.88;101751.50;5071610;28;20506;-73
2022/06/21 08:09:39;;;;;;;3.85;2.17;;;;;;;34.04;23.29;101749.31;5071463;28;20553;-73
2022/06/21 08:12:06;;;;;;;4.50;1.92;;;;;;;35.12;22.42;101738.78;5052434;28;20032;-73
2022/06/21 08:14:33;;;;;;;3.45;1.70;;;;;;;36.34;20.60;101745.25;5053241;28;20379;-74
2022/06/21 08:17:26;;;;;;;4.38;1.90;;;;;;;37.98;18.53;101736.44;5053497;28;20035;-74
2022/06/21 08:20:08;;;;;;;5.68;1.67;;;;;;;36.13;20.94;101741.06;5070196;28;20036;-74
2022/06/21 08:22:43;;;;;;;4.25;1.73;;;;;;;37.07;20.23;101735.63;5055064;28;20020;-74
2022/06/21 08:25:27;;;;;;;3.58;1.60;;;;;;;34.49;21.74;101726.88;5074402;28;20047;-73
2022/06/21 08:28:01;;;;;;;5.00;1.70;;;;;;;33.88;23.40;101723.69;5057088;28;20028;-74
2022/06/21 08:30:39;;;;;;;3.92;1.95;;;;;;;34.08;22.89;101729.03;5056838;28;20468;-74
2022/06/21 08:33:08;;;;;;;5.95;2.47;;;;;;;36.90;20.89;101715.66;5056425;28;20518;-73
2022/06/21 08:36:06;;;;;;;3.58;1.70;;;;;;;37.87;20.05;101720.44;5056651;28;20395;-74
2022/06/21 08:38:43;;;;;;;5.63;2.00;;;;;;;38.50;18.38;101720.56;5051189;28;20460;-74
2022/06/21 08:41:51;;;;;;;6.50;2.13;;;;;;;38.13;20.84;101720.19;5094913;28;20032;-74
2022/06/21 08:48:09;;;;;;;4.57;1.90;;;;;;;36.30;20.90;101714.78;5052472;28;20441;-73
2022/06/21 08:50:48;;;;;;;5.43;2.15;;;;;;;35.38;21.72;101708.97;5032276;28;20043;-73
2022/06/21 08:53:38;;;;;;;5.57;2.50;;;;;;;34.98;23.92;101710.28;5076092;28;20039;-73
2022/06/21 08:56:15;;;;;;;6.57;2.28;;;;;;;36.51;22.18;101713.53;5076201;28;20069;-74
2022/06/21 08:59:08;;;;;;;4.68;1.60;;;;;;;36.38;20.96;101715.88;5076431;28;20027;-73
2022/06/21 09:02:02;;;;;;;5.80;1.80;;;;;;;37.10;19.22;101702.59;5093922;28;20031;-73
2022/06/21 09:04:53;;;;;;;4.30;1.50;;;;;;;35.90;20.82;101708.16;5094515;28;20036;-74
2022/06/21 09:07:44;;;;;;;5.90;2.17;;;;;;;35.35;21.77;101703.84;5064086;28;20123;-73
2022/06/21 09:10:22;;;;;;;5.07;2.10;;;;;;;35.36;22.02;101707.41;5076368;28;20032;-74
2022/06/21 09:12:56;;;;;;;6.15;1.95;;;;;;;36.46;21.29;101702.28;5076137;28;20603;-73
2022/06/21 09:15:33;;;;;;;6.13;2.08;;;;;;;36.97;20.08;101705.84;5093818;28;20024;-74
2022/06/21 09:18:11;;;;;;;5.40;2.00;;;;;;;37.74;18.86;101703.72;5076296;28;20101;-74
2022/06/21 09:21:05;;;;;;;6.13;1.95;;;;;;;40.09;17.51;101692.53;5075815;28;20035;-74
2022/06/21 09:23:52;;;;;;;4.78;1.88;;;;;;;39.62;16.84;101687.25;5051114;28;20564;-75
2022/06/21 09:26:48;;;;;;;2.88;1.65;;;;;;;38.89;17.95;101678.66;5075904;28;20475;-72
2022/06/21 09:29:23;;;;;;;6.15;2.30;;;;;;;38.34;19.48;101688.72;5033892;28;20455;-73
2022/06/21 09:31:56;;;;;;;3.83;1.92;;;;;;;38.15;17.93;101690.81;5075709;28;20433;-73
2022/06/21 09:34:36;;;;;;;5.55;1.65;;;;;;;36.12;18.38;101694.97;5093576;28;20020;-71
2022/06/21 09:37:40;;;;;;;4.47;1.60;;;;;;;37.33;19.02;101691.00;5074882;28;20085;-72
2022/06/21 09:40:14;;;;;;;3.30;2.20;;;;;;;36.84;19.17;101686.41;5084025;28;20469;-71
2022/06/21 09:42:53;;;;;;;3.20;1.73;;;;;;;35.39;19.31;101686.19;5091826;28;20028;-72
2022/06/21 09:45:41;;;;;;;3.80;1.92;;;;;;;36.21;19.01;101685.84;5092326;28;20028;-72
2022/06/21 09:48:24;;;;;;;5.47;1.52;;;;;;;36.63;19.65;101679.53;5092342;28;20020;-72
2022/06/21 09:51:00;;;;;;;4.13;1.92;;;;;;;32.91;22.58;101684.81;5091608;28;20043;-72
2022/06/21 09:53:40;;;;;;;5.25;2.22;;;;;;;32.28;23.73;101675.13;5092298;28;20024;-72
2022/06/21 09:56:13;;;;;;;2.97;1.98;;;;;;;32.35;24.01;101666.47;5091896;28;20371;-72
2022/06/21 09:58:55;;;;;;;5.55;2.17;;;;;;;32.36;25.34;101670.91;5093258;28;20080;-72
2022/06/21 10:01:41;;;;;;;3.97;2.50;;;;;;;31.77;24.60;101662.53;5093385;28;20526;-72
2022/06/21 10:04:19;;;;;;;5.13;1.90;;;;;;;33.68;24.45;101665.94;5091403;28;20027;-72
2022/06/21 10:06:59;;;;;;;3.53;1.92;;;;;;;35.07;20.95;101654.19;5093211;28;20038;-72
2022/06/21 10:09:42;;;;;;;2.83;1.80;;;;;;;34.53;21.63;101657.72;5093148;28;20096;-71
2022/06/21 10:12:23;;;;;;;4.13;2.08;;;;;;;34.01;22.91;101657.44;5090953;28;20460;-72
2022/06/21 10:15:13;;;;;;;3.58;1.88;;;;;;;34.69;22.66;101656.19;5091720;28;20509;-73
2022/06/21 10:17:59;;;;;;;6.03;2.10;;;;;;;34.91;20.48;101660.31;5091003;28;20077;-72
2022/06/21 10:20:40;;;;;;;2.40;1.73;;;;;;;34.65;21.70;101661.94;5091544;28;20436;-72
2022/06/21 10:23:27;;;;;;;5.03;2.50;;;;;;;33.30;24.06;101654.19;5091600;28;20039;-72
2022/06/21 10:25:56;;;;;;;3.70;2.10;;;;;;;34.14;22.20;101652.50;5090810;28;20043;-72
2022/06/21 10:28:38;;;;;;;5.40;2.05;;;;;;;35.96;19.92;101639.50;5092804;28;20023;-72
2022/06/21 10:31:34;;;;;;;9.32;2.13;;;;;;;35.40;20.44;101640.88;5091198;28;20484;-73
2022/06/21 10:34:38;;;;;;;7.90;1.83;;;;;;;37.50;19.33;101637.34;5091324;28;20081;-73
2022/06/21 10:37:22;;;;;;;3.72;1.95;;;;;;;38.00;17.72;101638.91;5091318;28;20459;-73
2022/06/21 10:40:12;;;;;;;2.83;1.85;;;;;;;37.50;18.96;101643.63;5090215;28;20044;-73
2022/06/21 10:43:25;;;;;;;5.32;2.42;;;;;;;36.35;20.43;101632.69;5092344;28;20063;-72
2022/06/21 10:45:58;;;;;;;3.80;2.10;;;;;;;36.40;19.56;101622.16;5089650;28;20426;-72
2022/06/21 10:48:53;;;;;;;5.78;2.13;;;;;;;36.44;18.72;101615.38;5091064;28;20016;-71
2022/06/21 10:51:28;;;;;;;3.88;2.05;;;;;;;34.58;20.68;101633.72;5092402;28;20433;-72
2022/06/21 10:54:27;;;;;;;3.00;2.00;;;;;;;33.92;21.87;101638.34;5090105;28;20031;-72
2022/06/21 10:57:11;;;;;;;4.22;2.00;;;;;;;34.62;20.74;101640.53;5090659;28;20031;-72
2022/06/21 11:02:56;;;;;;;6.70;2.28;;;;;;;35.14;21.24;101638.97;5092377;28;20044;-72
2022/06/21 11:05:42;;;;;;;3.63;2.10;;;;;;;33.99;21.84;101639.47;5092199;28;20028;-72
2022/06/21 11:08:20;;;;;;;5.22;1.90;;;;;;;33.08;22.88;101644.50;5089631;28;20035;-72
2022/06/21 11:11:00;;;;;;;3.25;1.73;;;;;;;35.10;21.11;101638.41;5090505;28;20024;-73
2022/06/21 11:13:49;;;;;;;2.25;1.98;;;;;;;35.95;19.49;101635.06;5091869;28;20036;-73
2022/06/21 11:16:51;;;;;;;5.45;2.28;;;;;;;34.52;20.52;101634.31;5090498;28;20559;-72
2022/06/21 11:19:54;;;;;;;2.72;1.83;;;;;;;34.58;19.99;101633.72;5090470;28;20055;-72
2022/06/21 11:22:46;;;;;;;4.47;2.35;;;;;;;32.73;22.61;101637.81;5085326;28;20039;-72
2022/06/21 11:25:28;;;;;;;3.15;2.22;;;;;;;34.11;21.08;101631.13;5091886;28;20053;-72
2022/06/21 11:27:57;;;;;;;3.20;2.40;;;;;;;31.72;22.84;101638.59;5089661;28;20043;-72
2022/06/21 11:30:30;;;;;;;5.28;2.60;;;;;;;34.13;21.10;101629.97;5091436;28;20024;-73
2022/06/21 11:33:23;;;;;;;4.35;2.22;;;;;;;33.50;21.76;101641.47;5091796;28;20104;-73
2022/06/21 11:36:00;;;;;;;3.60;2.30;;;;;;;33.82;21.65;101641.09;5089806;28;20032;-73
2022/06/21 11:38:50;;;;;;;4.28;2.42;;;;;;;32.95;23.40;101634.81;5091596;28;20028;-73
2022/06/21 11:44:42;;;;;;;3.72;2.15;;;;;;;33.44;21.84;101625.78;5092303;28;20043;-73
2022/06/21 11:47:27;;;;;;;4.68;2.03;;;;;;;33.97;22.37;101619.75;5090249;28;20471;-73
2022/06/21 11:50:08;;;;;;;4.63;2.75;;;;;;;34.02;21.11;101616.63;5089476;28;20024;-72
2022/06/21 11:52:42;;;;;;;4.00;2.33;;;;;;;34.32;20.52;101615.47;5090273;28;20030;-72
2022/06/21 11:55:21;;;;;;;5.13;2.10;;;;;;;34.63;20.51;101617.78;5090128;28;20036;-73
2022/06/21 11:58:00;;;;;;;4.63;2.80;;;;;;;34.69;20.32;101601.91;5093451;28;20036;-73
2022/06/21 12:00:47;;;;;;;4.25;2.97;;;;;;;33.82;21.18;101615.84;5094479;28;20040;-72
2022/06/21 12:03:51;;;;;;;4.78;2.90;;;;;;;33.91;21.17;101606.81;5093752;28;20016;-73
2022/06/21 12:06:16;;;;;;;3.90;2.40;;;;;;;33.75;21.91;101607.41;5094298;28;20028;-73
2022/06/21 12:08:55;;;;;;;6.32;2.38;;;;;;;32.91;22.24;101606.31;5094306;28;20169;-73
2022/06/21 12:11:53;;;;;;;4.00;2.40;;;;;;;34.06;21.18;101595.44;5093483;28;20453;-72
2022/06/21 12:14:52;;;;;;;7.05;2.83;;;;;;;34.22;21.46;101590.22;5053352;28;20032;-72
2022/06/21 12:17:22;;;;;;;4.93;2.38;;;;;;;34.23;22.42;101591.94;5093232;28;20050;-71
2022/06/21 12:19:55;;;;;;;7.07;2.50;;;;;;;32.72;23.36;101590.09;5093921;28;20111;-71
2022/06/21 12:22:31;;;;;;;3.97;2.80;;;;;;;33.14;22.77;101589.78;5093955;28;20032;-71